sensor_id;sensor_type;location;lat;lon;timestamp;temperature;humidity
45843;DHT22;31563;51.744;8.252;2023-04-07T00:01:55;25.00;30.40
45843;DHT22;31563;51.744;8.252;2023-04-07T00:04:23;25.00;30.40
45843;DHT22;31563;51.744;8.252;2023-04-07T00:06:52;25.00;30.30
45843;DHT22;31563;51.744;8.252;2023-04-07T00:09:20;25.00;30.30
45843;DHT22;31563;51.744;8.252;2023-04-07T00:11:48;25.00;30.30
45843;DHT22;31563;51.744;8.252;2023-04-07T00:14:17;25.00;30.10
45843;DHT22;31563;51.744;8.252;2023-04-07T00:16:47;25.00;30.30
45843;DHT22;31563;51.744;8.252;2023-04-07T00:19:15;24.90;30.20
45843;DHT22;31563;51.744;8.252;2023-04-07T00:21:43;24.90;30.20
45843;DHT22;31563;51.744;8.252;2023-04-07T00:24:11;24.90;30.20
45843;DHT22;31563;51.744;8.252;2023-04-07T00:26:53;24.90;30.20
45843;DHT22;31563;51.744;8.252;2023-04-07T00:29:22;24.90;30.30
45843;DHT22;31563;51.744;8.252;2023-04-07T00:31:52;24.80;30.30
45843;DHT22;31563;51.744;8.252;2023-04-07T00:34:20;24.80;30.20
45843;DHT22;31563;51.744;8.252;2023-04-07T00:36:48;24.80;30.30
45843;DHT22;31563;51.744;8.252;2023-04-07T00:39:17;24.80;30.30
45843;DHT22;31563;51.744;8.252;2023-04-07T00:41:46;24.80;30.30
45843;DHT22;31563;51.744;8.252;2023-04-07T00:44:14;24.80;30.30
45843;DHT22;31563;51.744;8.252;2023-04-07T00:46:43;24.70;30.20
45843;DHT22;31563;51.744;8.252;2023-04-07T00:49:12;24.70;30.30
45843;DHT22;31563;51.744;8.252;2023-04-07T00:51:44;24.70;30.40
45843;DHT22;31563;51.744;8.252;2023-04-07T00:54:12;24.70;30.40
45843;DHT22;31563;51.744;8.252;2023-04-07T00:56:41;24.70;30.40
45843;DHT22;31563;51.744;8.252;2023-04-07T00:59:09;24.60;30.50
45843;DHT22;31563;51.744;8.252;2023-04-07T01:01:43;24.70;30.50
45843;DHT22;31563;51.744;8.252;2023-04-07T01:04:21;24.60;30.50
45843;DHT22;31563;51.744;8.252;2023-04-07T01:06:52;24.60;30.50
45843;DHT22;31563;51.744;8.252;2023-04-07T01:09:28;24.50;30.50
45843;DHT22;31563;51.744;8.252;2023-04-07T01:12:02;24.50;30.50
45843;DHT22;31563;51.744;8.252;2023-04-07T01:14:34;24.50;30.60
45843;DHT22;31563;51.744;8.252;2023-04-07T01:17:09;24.50;30.60
45843;DHT22;31563;51.744;8.252;2023-04-07T01:19:43;24.40;30.80
45843;DHT22;31563;51.744;8.252;2023-04-07T01:22:16;24.40;30.90
45843;DHT22;31563;51.744;8.252;2023-04-07T01:25:01;24.40;30.90
45843;DHT22;31563;51.744;8.252;2023-04-07T01:27:37;24.40;31.00
45843;DHT22;31563;51.744;8.252;2023-04-07T01:30:11;24.30;31.00
45843;DHT22;31563;51.744;8.252;2023-04-07T01:32:41;24.30;31.00
45843;DHT22;31563;51.744;8.252;2023-04-07T01:35:12;24.30;30.90
45843;DHT22;31563;51.744;8.252;2023-04-07T01:37:40;24.30;31.00
45843;DHT22;31563;51.744;8.252;2023-04-07T01:40:12;24.30;30.90
45843;DHT22;31563;51.744;8.252;2023-04-07T01:42:42;24.30;30.80
45843;DHT22;31563;51.744;8.252;2023-04-07T01:45:13;24.30;30.90
45843;DHT22;31563;51.744;8.252;2023-04-07T01:47:43;24.30;30.90
45843;DHT22;31563;51.744;8.252;2023-04-07T01:50:12;24.20;30.80
45843;DHT22;31563;51.744;8.252;2023-04-07T01:52:41;24.20;30.90
45843;DHT22;31563;51.744;8.252;2023-04-07T01:55:09;24.20;30.90
45843;DHT22;31563;51.744;8.252;2023-04-07T01:57:38;24.20;31.00
45843;DHT22;31563;51.744;8.252;2023-04-07T02:00:07;24.10;30.90
45843;DHT22;31563;51.744;8.252;2023-04-07T02:02:40;24.10;30.90
45843;DHT22;31563;51.744;8.252;2023-04-07T02:05:14;24.10;30.90
45843;DHT22;31563;51.744;8.252;2023-04-07T02:07:50;24.10;31.00
45843;DHT22;31563;51.744;8.252;2023-04-07T02:10:21;24.10;31.10
45843;DHT22;31563;51.744;8.252;2023-04-07T02:12:51;24.10;31.10
45843;DHT22;31563;51.744;8.252;2023-04-07T02:15:21;24.00;31.00
45843;DHT22;31563;51.744;8.252;2023-04-07T02:17:52;24.10;31.10
45843;DHT22;31563;51.744;8.252;2023-04-07T02:20:23;24.10;31.10
45843;DHT22;31563;51.744;8.252;2023-04-07T02:22:51;24.10;31.00
45843;DHT22;31563;51.744;8.252;2023-04-07T02:25:22;24.00;30.90
45843;DHT22;31563;51.744;8.252;2023-04-07T02:27:51;24.00;31.10
45843;DHT22;31563;51.744;8.252;2023-04-07T02:30:20;24.00;31.00
45843;DHT22;31563;51.744;8.252;2023-04-07T02:32:48;23.90;31.00
45843;DHT22;31563;51.744;8.252;2023-04-07T02:35:18;23.90;31.10
45843;DHT22;31563;51.744;8.252;2023-04-07T02:37:46;23.90;31.10
45843;DHT22;31563;51.744;8.252;2023-04-07T02:40:15;23.90;31.40
45843;DHT22;31563;51.744;8.252;2023-04-07T02:42:43;23.80;32.00
45843;DHT22;31563;51.744;8.252;2023-04-07T02:45:11;23.80;32.30
45843;DHT22;31563;51.744;8.252;2023-04-07T02:47:40;23.80;32.40
45843;DHT22;31563;51.744;8.252;2023-04-07T02:50:08;23.70;32.30
45843;DHT22;31563;51.744;8.252;2023-04-07T02:52:38;23.70;32.20
45843;DHT22;31563;51.744;8.252;2023-04-07T02:55:07;23.70;32.60
45843;DHT22;31563;51.744;8.252;2023-04-07T02:57:35;23.70;32.60
45843;DHT22;31563;51.744;8.252;2023-04-07T03:00:04;23.60;32.40
45843;DHT22;31563;51.744;8.252;2023-04-07T03:02:33;23.60;32.40
45843;DHT22;31563;51.744;8.252;2023-04-07T03:05:01;23.60;32.70
45843;DHT22;31563;51.744;8.252;2023-04-07T03:07:30;23.60;32.80
45843;DHT22;31563;51.744;8.252;2023-04-07T03:09:59;23.60;32.70
45843;DHT22;31563;51.744;8.252;2023-04-07T03:12:27;23.60;32.70
45843;DHT22;31563;51.744;8.252;2023-04-07T03:14:56;23.60;32.80
45843;DHT22;31563;51.744;8.252;2023-04-07T03:17:24;23.60;32.90
45843;DHT22;31563;51.744;8.252;2023-04-07T03:19:52;23.50;32.70
45843;DHT22;31563;51.744;8.252;2023-04-07T03:22:20;23.50;32.70
45843;DHT22;31563;51.744;8.252;2023-04-07T03:24:48;23.60;32.70
45843;DHT22;31563;51.744;8.252;2023-04-07T03:27:18;23.50;32.60
45843;DHT22;31563;51.744;8.252;2023-04-07T03:29:46;23.50;32.80
45843;DHT22;31563;51.744;8.252;2023-04-07T03:32:14;23.50;32.80
45843;DHT22;31563;51.744;8.252;2023-04-07T03:34:43;23.40;32.80
45843;DHT22;31563;51.744;8.252;2023-04-07T03:37:11;23.40;32.80
45843;DHT22;31563;51.744;8.252;2023-04-07T03:39:39;23.40;32.90
45843;DHT22;31563;51.744;8.252;2023-04-07T03:42:07;23.40;32.90
45843;DHT22;31563;51.744;8.252;2023-04-07T03:44:37;23.40;33.00
45843;DHT22;31563;51.744;8.252;2023-04-07T03:47:05;23.40;32.90
45843;DHT22;31563;51.744;8.252;2023-04-07T03:49:33;23.50;32.90
45843;DHT22;31563;51.744;8.252;2023-04-07T03:52:04;23.10;32.60
45843;DHT22;31563;51.744;8.252;2023-04-07T03:54:32;23.50;32.80
45843;DHT22;31563;51.744;8.252;2023-04-07T03:57:01;23.60;32.80
45843;DHT22;31563;51.744;8.252;2023-04-07T03:59:30;23.60;32.80
45843;DHT22;31563;51.744;8.252;2023-04-07T04:02:00;23.60;32.80
45843;DHT22;31563;51.744;8.252;2023-04-07T04:04:28;23.60;32.70
45843;DHT22;31563;51.744;8.252;2023-04-07T04:06:56;23.60;32.70
45843;DHT22;31563;51.744;8.252;2023-04-07T04:09:24;23.60;32.70
45843;DHT22;31563;51.744;8.252;2023-04-07T04:11:52;23.60;32.70
45843;DHT22;31563;51.744;8.252;2023-04-07T04:14:22;23.90;33.10
45843;DHT22;31563;51.744;8.252;2023-04-07T04:16:50;23.40;32.10
45843;DHT22;31563;51.744;8.252;2023-04-07T04:19:19;23.60;67.80
45843;DHT22;31563;51.744;8.252;2023-04-07T04:21:47;23.60;32.50
45843;DHT22;31563;51.744;8.252;2023-04-07T04:24:16;23.60;32.60
45843;DHT22;31563;51.744;8.252;2023-04-07T04:26:44;23.60;32.60
45843;DHT22;31563;51.744;8.252;2023-04-07T04:29:15;23.60;32.60
45843;DHT22;31563;51.744;8.252;2023-04-07T04:31:44;23.60;32.60
45843;DHT22;31563;51.744;8.252;2023-04-07T04:34:12;23.60;32.60
45843;DHT22;31563;51.744;8.252;2023-04-07T04:36:42;23.60;32.60
45843;DHT22;31563;51.744;8.252;2023-04-07T04:39:10;23.80;32.70
45843;DHT22;31563;51.744;8.252;2023-04-07T04:41:38;23.60;32.60
45843;DHT22;31563;51.744;8.252;2023-04-07T04:44:06;23.60;32.50
45843;DHT22;31563;51.744;8.252;2023-04-07T04:46:35;23.60;32.40
45843;DHT22;31563;51.744;8.252;2023-04-07T04:49:03;23.60;32.50
45843;DHT22;31563;51.744;8.252;2023-04-07T04:51:32;23.60;32.50
45843;DHT22;31563;51.744;8.252;2023-04-07T04:54:01;23.60;32.50
45843;DHT22;31563;51.744;8.252;2023-04-07T04:56:32;23.60;32.50
45843;DHT22;31563;51.744;8.252;2023-04-07T04:59:00;23.60;32.50
45843;DHT22;31563;51.744;8.252;2023-04-07T05:01:28;23.60;32.50
45843;DHT22;31563;51.744;8.252;2023-04-07T05:03:59;23.60;32.40
45843;DHT22;31563;51.744;8.252;2023-04-07T05:06:27;23.60;32.50
45843;DHT22;31563;51.744;8.252;2023-04-07T05:08:55;23.60;32.40
45843;DHT22;31563;51.744;8.252;2023-04-07T05:11:25;23.60;32.50
45843;DHT22;31563;51.744;8.252;2023-04-07T05:13:53;23.60;32.50
45843;DHT22;31563;51.744;8.252;2023-04-07T05:16:21;23.60;32.50
45843;DHT22;31563;51.744;8.252;2023-04-07T05:18:49;23.60;32.60
45843;DHT22;31563;51.744;8.252;2023-04-07T05:21:18;23.50;33.20
45843;DHT22;31563;51.744;8.252;2023-04-07T05:23:48;23.40;33.70
45843;DHT22;31563;51.744;8.252;2023-04-07T05:26:17;23.50;33.90
45843;DHT22;31563;51.744;8.252;2023-04-07T05:28:46;23.50;34.00
45843;DHT22;31563;51.744;8.252;2023-04-07T05:31:14;23.60;34.30
45843;DHT22;31563;51.744;8.252;2023-04-07T05:33:43;23.60;34.50
45843;DHT22;31563;51.744;8.252;2023-04-07T05:36:11;23.60;34.30
45843;DHT22;31563;51.744;8.252;2023-04-07T05:38:39;23.70;34.90
45843;DHT22;31563;51.744;8.252;2023-04-07T05:41:07;23.70;34.80
45843;DHT22;31563;51.744;8.252;2023-04-07T05:43:35;23.70;34.70
45843;DHT22;31563;51.744;8.252;2023-04-07T05:46:05;23.70;35.10
45843;DHT22;31563;51.744;8.252;2023-04-07T05:48:33;23.60;34.70
45843;DHT22;31563;51.744;8.252;2023-04-07T05:51:01;23.70;34.80
45843;DHT22;31563;51.744;8.252;2023-04-07T05:53:29;23.70;34.80
45843;DHT22;31563;51.744;8.252;2023-04-07T05:55:57;23.70;34.90
45843;DHT22;31563;51.744;8.252;2023-04-07T05:58:26;23.70;34.80
45843;DHT22;31563;51.744;8.252;2023-04-07T06:00:54;23.70;34.80
45843;DHT22;31563;51.744;8.252;2023-04-07T06:03:24;23.70;34.80
45843;DHT22;31563;51.744;8.252;2023-04-07T06:05:52;23.70;34.80
45843;DHT22;31563;51.744;8.252;2023-04-07T06:08:20;23.70;34.70
45843;DHT22;31563;51.744;8.252;2023-04-07T06:10:48;23.60;34.70
45843;DHT22;31563;51.744;8.252;2023-04-07T06:13:16;23.70;34.80
45843;DHT22;31563;51.744;8.252;2023-04-07T06:15:45;23.70;34.70
45843;DHT22;31563;51.744;8.252;2023-04-07T06:18:13;23.70;34.70
45843;DHT22;31563;51.744;8.252;2023-04-07T06:20:42;23.70;34.70
45843;DHT22;31563;51.744;8.252;2023-04-07T06:23:10;23.70;34.70
45843;DHT22;31563;51.744;8.252;2023-04-07T06:25:38;23.80;34.70
45843;DHT22;31563;51.744;8.252;2023-04-07T06:28:07;23.70;34.60
45843;DHT22;31563;51.744;8.252;2023-04-07T06:30:35;23.80;34.60
45843;DHT22;31563;51.744;8.252;2023-04-07T06:33:03;23.80;34.60
45843;DHT22;31563;51.744;8.252;2023-04-07T06:35:31;23.90;34.60
45843;DHT22;31563;51.744;8.252;2023-04-07T06:38:01;23.90;34.50
45843;DHT22;31563;51.744;8.252;2023-04-07T06:40:29;23.90;34.50
45843;DHT22;31563;51.744;8.252;2023-04-07T06:42:57;23.90;34.30
45843;DHT22;31563;51.744;8.252;2023-04-07T06:45:25;24.00;34.30
45843;DHT22;31563;51.744;8.252;2023-04-07T06:47:53;23.90;34.20
45843;DHT22;31563;51.744;8.252;2023-04-07T06:50:21;23.90;34.20
45843;DHT22;31563;51.744;8.252;2023-04-07T06:52:50;23.90;34.20
45843;DHT22;31563;51.744;8.252;2023-04-07T06:55:19;23.90;34.30
45843;DHT22;31563;51.744;8.252;2023-04-07T06:57:47;24.00;34.30
45843;DHT22;31563;51.744;8.252;2023-04-07T07:00:18;24.00;34.20
45843;DHT22;31563;51.744;8.252;2023-04-07T07:02:46;24.00;34.00
45843;DHT22;31563;51.744;8.252;2023-04-07T07:05:14;24.00;34.10
45843;DHT22;31563;51.744;8.252;2023-04-07T07:07:43;23.90;34.10
45843;DHT22;31563;51.744;8.252;2023-04-07T07:10:11;24.00;34.10
45843;DHT22;31563;51.744;8.252;2023-04-07T07:12:40;24.00;34.10
45843;DHT22;31563;51.744;8.252;2023-04-07T07:15:09;24.00;34.10
45843;DHT22;31563;51.744;8.252;2023-04-07T07:17:37;24.00;34.10
45843;DHT22;31563;51.744;8.252;2023-04-07T07:20:07;24.00;34.10
45843;DHT22;31563;51.744;8.252;2023-04-07T07:22:35;24.10;34.10
45843;DHT22;31563;51.744;8.252;2023-04-07T07:25:04;24.00;34.30
45843;DHT22;31563;51.744;8.252;2023-04-07T07:27:32;24.10;34.70
45843;DHT22;31563;51.744;8.252;2023-04-07T07:30:02;24.20;35.20
45843;DHT22;31563;51.744;8.252;2023-04-07T07:32:30;24.20;35.30
45843;DHT22;31563;51.744;8.252;2023-04-07T07:34:58;24.20;35.40
45843;DHT22;31563;51.744;8.252;2023-04-07T07:37:27;24.30;35.30
45843;DHT22;31563;51.744;8.252;2023-04-07T07:39:55;24.30;35.20
45843;DHT22;31563;51.744;8.252;2023-04-07T07:42:23;24.40;35.20
45843;DHT22;31563;51.744;8.252;2023-04-07T07:44:51;24.40;35.10
45843;DHT22;31563;51.744;8.252;2023-04-07T07:47:21;24.40;35.00
45843;DHT22;31563;51.744;8.252;2023-04-07T07:49:49;24.50;35.00
45843;DHT22;31563;51.744;8.252;2023-04-07T07:52:18;24.40;35.00
45843;DHT22;31563;51.744;8.252;2023-04-07T07:54:47;24.40;35.00
45843;DHT22;31563;51.744;8.252;2023-04-07T07:57:15;24.50;35.10
45843;DHT22;31563;51.744;8.252;2023-04-07T07:59:43;24.50;35.00
45843;DHT22;31563;51.744;8.252;2023-04-07T08:02:12;24.50;35.00
45843;DHT22;31563;51.744;8.252;2023-04-07T08:04:42;24.60;34.90
45843;DHT22;31563;51.744;8.252;2023-04-07T08:07:10;24.70;34.80
45843;DHT22;31563;51.744;8.252;2023-04-07T08:09:38;24.70;34.80
45843;DHT22;31563;51.744;8.252;2023-04-07T08:12:06;24.70;34.70
45843;DHT22;31563;51.744;8.252;2023-04-07T08:14:34;24.70;34.90
45843;DHT22;31563;51.744;8.252;2023-04-07T08:17:03;24.70;35.30
45843;DHT22;31563;51.744;8.252;2023-04-07T08:19:31;24.60;35.50
45843;DHT22;31563;51.744;8.252;2023-04-07T08:22:00;24.60;35.50
45843;DHT22;31563;51.744;8.252;2023-04-07T08:24:28;24.50;35.50
45843;DHT22;31563;51.744;8.252;2023-04-07T08:26:57;24.60;35.50
45843;DHT22;31563;51.744;8.252;2023-04-07T08:29:25;24.50;35.40
45843;DHT22;31563;51.744;8.252;2023-04-07T08:31:53;24.50;35.50
45843;DHT22;31563;51.744;8.252;2023-04-07T08:34:21;24.50;35.40
45843;DHT22;31563;51.744;8.252;2023-04-07T08:36:49;24.50;35.50
45843;DHT22;31563;51.744;8.252;2023-04-07T08:39:19;24.50;35.50
45843;DHT22;31563;51.744;8.252;2023-04-07T08:41:49;24.50;35.60
45843;DHT22;31563;51.744;8.252;2023-04-07T08:44:19;24.50;35.50
45843;DHT22;31563;51.744;8.252;2023-04-07T08:46:50;24.50;35.50
45843;DHT22;31563;51.744;8.252;2023-04-07T08:49:22;24.50;35.60
45843;DHT22;31563;51.744;8.252;2023-04-07T08:51:52;24.50;35.70
45843;DHT22;31563;51.744;8.252;2023-04-07T08:54:22;24.50;35.60
45843;DHT22;31563;51.744;8.252;2023-04-07T08:56:51;24.50;35.60
45843;DHT22;31563;51.744;8.252;2023-04-07T08:59:20;24.60;35.60
45843;DHT22;31563;51.744;8.252;2023-04-07T09:01:53;24.70;35.50
45843;DHT22;31563;51.744;8.252;2023-04-07T09:04:22;24.70;35.50
45843;DHT22;31563;51.744;8.252;2023-04-07T09:06:50;24.80;35.50
45843;DHT22;31563;51.744;8.252;2023-04-07T09:09:18;24.90;35.40
45843;DHT22;31563;51.744;8.252;2023-04-07T09:11:48;25.00;35.20
45843;DHT22;31563;51.744;8.252;2023-04-07T09:14:17;25.00;35.10
45843;DHT22;31563;51.744;8.252;2023-04-07T09:16:46;25.10;35.10
45843;DHT22;31563;51.744;8.252;2023-04-07T09:19:15;25.20;35.00
45843;DHT22;31563;51.744;8.252;2023-04-07T09:21:49;25.20;35.00
45843;DHT22;31563;51.744;8.252;2023-04-07T09:24:22;25.30;34.80
45843;DHT22;31563;51.744;8.252;2023-04-07T09:27:08;25.30;34.70
45843;DHT22;31563;51.744;8.252;2023-04-07T09:29:36;25.40;34.70
45843;DHT22;31563;51.744;8.252;2023-04-07T09:32:05;25.50;34.80
45843;DHT22;31563;51.744;8.252;2023-04-07T09:34:35;25.60;34.60
45843;DHT22;31563;51.744;8.252;2023-04-07T09:37:07;25.70;34.60
45843;DHT22;31563;51.744;8.252;2023-04-07T09:39:47;25.80;34.40
45843;DHT22;31563;51.744;8.252;2023-04-07T09:42:18;25.90;34.50
45843;DHT22;31563;51.744;8.252;2023-04-07T09:44:47;26.00;34.30
45843;DHT22;31563;51.744;8.252;2023-04-07T09:47:15;25.90;34.00
45843;DHT22;31563;51.744;8.252;2023-04-07T09:49:50;25.90;33.90
45843;DHT22;31563;51.744;8.252;2023-04-07T09:52:24;25.90;33.90
45843;DHT22;31563;51.744;8.252;2023-04-07T09:54:53;25.90;34.10
45843;DHT22;31563;51.744;8.252;2023-04-07T09:57:24;25.90;34.10
45843;DHT22;31563;51.744;8.252;2023-04-07T09:59:52;25.90;34.10
45843;DHT22;31563;51.744;8.252;2023-04-07T10:02:21;26.00;34.30
45843;DHT22;31563;51.744;8.252;2023-04-07T10:04:52;26.10;34.00
45843;DHT22;31563;51.744;8.252;2023-04-07T10:07:20;26.20;33.90
45843;DHT22;31563;51.744;8.252;2023-04-07T10:09:49;26.20;33.90
45843;DHT22;31563;51.744;8.252;2023-04-07T10:12:17;26.20;33.80
45843;DHT22;31563;51.744;8.252;2023-04-07T10:14:47;26.30;33.80
45843;DHT22;31563;51.744;8.252;2023-04-07T10:17:16;26.20;33.70
45843;DHT22;31563;51.744;8.252;2023-04-07T10:19:47;26.20;33.70
45843;DHT22;31563;51.744;8.252;2023-04-07T10:22:16;26.10;33.50
45843;DHT22;31563;51.744;8.252;2023-04-07T10:24:50;26.20;33.80
45843;DHT22;31563;51.744;8.252;2023-04-07T10:27:27;26.10;33.60
45843;DHT22;31563;51.744;8.252;2023-04-07T10:29:58;26.20;33.80
45843;DHT22;31563;51.744;8.252;2023-04-07T10:32:27;26.20;33.80
45843;DHT22;31563;51.744;8.252;2023-04-07T10:34:56;26.20;33.60
45843;DHT22;31563;51.744;8.252;2023-04-07T10:37:25;26.20;33.60
45843;DHT22;31563;51.744;8.252;2023-04-07T10:40:28;26.10;33.50
45843;DHT22;31563;51.744;8.252;2023-04-07T10:42:57;26.10;33.60
45843;DHT22;31563;51.744;8.252;2023-04-07T10:45:57;26.10;33.50
45843;DHT22;31563;51.744;8.252;2023-04-07T10:48:28;26.10;33.60
45843;DHT22;31563;51.744;8.252;2023-04-07T10:51:15;26.20;33.60
45843;DHT22;31563;51.744;8.252;2023-04-07T10:57:05;26.30;33.60
45843;DHT22;31563;51.744;8.252;2023-04-07T10:59:37;26.30;33.50
45843;DHT22;31563;51.744;8.252;2023-04-07T11:02:36;26.20;33.20
45843;DHT22;31563;51.744;8.252;2023-04-07T11:05:05;26.00;33.00
45843;DHT22;31563;51.744;8.252;2023-04-07T11:07:44;25.80;33.60
45843;DHT22;31563;51.744;8.252;2023-04-07T11:10:13;25.80;34.30
45843;DHT22;31563;51.744;8.252;2023-04-07T11:12:42;25.80;34.40
45843;DHT22;31563;51.744;8.252;2023-04-07T11:15:17;25.90;34.40
45843;DHT22;31563;51.744;8.252;2023-04-07T11:18:05;26.00;34.40
45843;DHT22;31563;51.744;8.252;2023-04-07T11:20:44;26.00;34.30
45843;DHT22;31563;51.744;8.252;2023-04-07T11:23:14;26.00;34.20
45843;DHT22;31563;51.744;8.252;2023-04-07T11:25:44;26.00;34.30
45843;DHT22;31563;51.744;8.252;2023-04-07T11:28:13;26.10;34.30
45843;DHT22;31563;51.744;8.252;2023-04-07T11:30:48;26.10;34.30
45843;DHT22;31563;51.744;8.252;2023-04-07T11:33:20;26.10;34.20
45843;DHT22;31563;51.744;8.252;2023-04-07T11:35:53;26.20;34.30
45843;DHT22;31563;51.744;8.252;2023-04-07T11:38:23;26.30;34.20
45843;DHT22;31563;51.744;8.252;2023-04-07T11:40:53;26.40;34.20
45843;DHT22;31563;51.744;8.252;2023-04-07T11:43:22;26.40;34.10
45843;DHT22;31563;51.744;8.252;2023-04-07T11:46:09;26.50;33.30
45843;DHT22;31563;51.744;8.252;2023-04-07T11:48:40;26.50;33.80
45843;DHT22;31563;51.744;8.252;2023-04-07T11:51:15;26.50;33.80
45843;DHT22;31563;51.744;8.252;2023-04-07T11:53:44;26.30;66.60
45843;DHT22;31563;51.744;8.252;2023-04-07T11:56:15;26.50;33.60
45843;DHT22;31563;51.744;8.252;2023-04-07T11:58:47;26.40;33.60
45843;DHT22;31563;51.744;8.252;2023-04-07T12:01:15;26.40;33.60
45843;DHT22;31563;51.744;8.252;2023-04-07T12:04:03;26.40;33.60
45843;DHT22;31563;51.744;8.252;2023-04-07T12:06:33;26.40;33.80
45843;DHT22;31563;51.744;8.252;2023-04-07T12:09:01;26.40;33.70
45843;DHT22;31563;51.744;8.252;2023-04-07T12:11:30;26.60;33.90
45843;DHT22;31563;51.744;8.252;2023-04-07T12:13:58;26.70;33.80
45843;DHT22;31563;51.744;8.252;2023-04-07T12:16:27;26.80;33.30
45843;DHT22;31563;51.744;8.252;2023-04-07T12:18:55;26.70;32.80
45843;DHT22;31563;51.744;8.252;2023-04-07T12:21:25;26.40;32.60
45843;DHT22;31563;51.744;8.252;2023-04-07T12:23:53;26.30;32.50
45843;DHT22;31563;51.744;8.252;2023-04-07T12:26:21;26.10;32.40
45843;DHT22;31563;51.744;8.252;2023-04-07T12:28:51;25.90;32.60
45843;DHT22;31563;51.744;8.252;2023-04-07T12:31:19;25.80;32.60
45843;DHT22;31563;51.744;8.252;2023-04-07T12:33:47;25.80;32.80
45843;DHT22;31563;51.744;8.252;2023-04-07T12:36:16;25.80;32.90
45843;DHT22;31563;51.744;8.252;2023-04-07T12:38:45;25.80;33.10
45843;DHT22;31563;51.744;8.252;2023-04-07T12:41:13;25.80;33.00
45843;DHT22;31563;51.744;8.252;2023-04-07T12:43:41;25.80;33.10
45843;DHT22;31563;51.744;8.252;2023-04-07T12:46:12;25.80;33.10
45843;DHT22;31563;51.744;8.252;2023-04-07T12:48:41;25.90;33.30
45843;DHT22;31563;51.744;8.252;2023-04-07T12:51:09;25.90;33.20
45843;DHT22;31563;51.744;8.252;2023-04-07T12:53:37;25.90;33.20
45843;DHT22;31563;51.744;8.252;2023-04-07T12:56:07;26.10;33.00
45843;DHT22;31563;51.744;8.252;2023-04-07T12:58:35;26.20;33.10
45843;DHT22;31563;51.744;8.252;2023-04-07T13:01:03;26.40;33.10
45843;DHT22;31563;51.744;8.252;2023-04-07T13:03:31;26.50;32.70
45843;DHT22;31563;51.744;8.252;2023-04-07T13:06:00;26.60;32.60
45843;DHT22;31563;51.744;8.252;2023-04-07T13:08:28;26.60;32.50
45843;DHT22;31563;51.744;8.252;2023-04-07T13:10:56;26.60;32.20
45843;DHT22;31563;51.744;8.252;2023-04-07T13:13:26;26.50;32.00
45843;DHT22;31563;51.744;8.252;2023-04-07T13:15:54;26.30;31.90
45843;DHT22;31563;51.744;8.252;2023-04-07T13:18:22;26.20;31.90
45843;DHT22;31563;51.744;8.252;2023-04-07T13:20:51;26.00;31.80
45843;DHT22;31563;51.744;8.252;2023-04-07T13:23:39;25.90;32.10
45843;DHT22;31563;51.744;8.252;2023-04-07T13:26:09;25.80;32.30
45843;DHT22;31563;51.744;8.252;2023-04-07T13:28:39;25.60;32.20
45843;DHT22;31563;51.744;8.252;2023-04-07T13:31:08;25.50;32.30
45843;DHT22;31563;51.744;8.252;2023-04-07T13:33:38;25.50;32.50
45843;DHT22;31563;51.744;8.252;2023-04-07T13:36:07;25.30;32.30
45843;DHT22;31563;51.744;8.252;2023-04-07T13:38:35;25.20;32.40
45843;DHT22;31563;51.744;8.252;2023-04-07T13:41:03;25.10;32.30
45843;DHT22;31563;51.744;8.252;2023-04-07T13:43:31;24.90;32.60
45843;DHT22;31563;51.744;8.252;2023-04-07T13:46:01;24.90;32.80
45843;DHT22;31563;51.744;8.252;2023-04-07T13:48:32;24.80;32.80
45843;DHT22;31563;51.744;8.252;2023-04-07T13:51:00;24.80;33.00
45843;DHT22;31563;51.744;8.252;2023-04-07T13:53:28;24.80;33.00
45843;DHT22;31563;51.744;8.252;2023-04-07T13:55:56;25.00;33.30
45843;DHT22;31563;51.744;8.252;2023-04-07T13:58:24;25.10;33.30
45843;DHT22;31563;51.744;8.252;2023-04-07T14:00:52;25.20;33.40
45843;DHT22;31563;51.744;8.252;2023-04-07T14:03:22;25.30;33.40
45843;DHT22;31563;51.744;8.252;2023-04-07T14:05:50;25.40;33.40
45843;DHT22;31563;51.744;8.252;2023-04-07T14:08:18;25.50;33.50
45843;DHT22;31563;51.744;8.252;2023-04-07T14:10:49;25.50;33.40
45843;DHT22;31563;51.744;8.252;2023-04-07T14:13:17;25.60;33.40
45843;DHT22;31563;51.744;8.252;2023-04-07T14:15:46;25.60;33.40
45843;DHT22;31563;51.744;8.252;2023-04-07T14:18:14;25.60;33.40
45843;DHT22;31563;51.744;8.252;2023-04-07T14:20:45;25.50;33.50
45843;DHT22;31563;51.744;8.252;2023-04-07T14:23:13;25.60;33.60
45843;DHT22;31563;51.744;8.252;2023-04-07T14:25:55;25.60;33.70
45843;DHT22;31563;51.744;8.252;2023-04-07T14:28:24;25.50;33.80
45843;DHT22;31563;51.744;8.252;2023-04-07T14:30:53;25.50;33.80
45843;DHT22;31563;51.744;8.252;2023-04-07T14:33:21;25.60;34.00
45843;DHT22;31563;51.744;8.252;2023-04-07T14:35:51;25.60;34.10
45843;DHT22;31563;51.744;8.252;2023-04-07T14:38:19;25.60;34.20
45843;DHT22;31563;51.744;8.252;2023-04-07T14:40:51;25.60;34.20
45843;DHT22;31563;51.744;8.252;2023-04-07T14:43:19;25.70;34.30
45843;DHT22;31563;51.744;8.252;2023-04-07T14:45:47;25.80;34.40
45843;DHT22;31563;51.744;8.252;2023-04-07T14:48:15;25.80;34.40
45843;DHT22;31563;51.744;8.252;2023-04-07T14:50:44;25.80;34.50
45843;DHT22;31563;51.744;8.252;2023-04-07T14:53:15;25.90;34.60
45843;DHT22;31563;51.744;8.252;2023-04-07T14:55:43;26.00;34.60
45843;DHT22;31563;51.744;8.252;2023-04-07T14:58:11;26.10;34.60
45843;DHT22;31563;51.744;8.252;2023-04-07T15:00:39;26.10;34.50
45843;DHT22;31563;51.744;8.252;2023-04-07T15:03:07;26.20;34.40
45843;DHT22;31563;51.744;8.252;2023-04-07T15:05:36;26.20;34.40
45843;DHT22;31563;51.744;8.252;2023-04-07T15:08:04;26.20;34.50
45843;DHT22;31563;51.744;8.252;2023-04-07T15:10:34;26.30;34.60
45843;DHT22;31563;51.744;8.252;2023-04-07T15:13:04;26.40;34.80
45843;DHT22;31563;51.744;8.252;2023-04-07T15:15:32;26.50;34.70
45843;DHT22;31563;51.744;8.252;2023-04-07T15:18:00;26.50;34.70
45843;DHT22;31563;51.744;8.252;2023-04-07T15:20:30;26.60;34.60
45843;DHT22;31563;51.744;8.252;2023-04-07T15:22:58;26.70;34.70
45843;DHT22;31563;51.744;8.252;2023-04-07T15:25:26;26.80;34.50
45843;DHT22;31563;51.744;8.252;2023-04-07T15:27:56;26.90;34.40
45843;DHT22;31563;51.744;8.252;2023-04-07T15:30:24;26.90;34.30
45843;DHT22;31563;51.744;8.252;2023-04-07T15:32:56;26.90;34.10
45843;DHT22;31563;51.744;8.252;2023-04-07T15:35:26;26.80;34.00
45843;DHT22;31563;51.744;8.252;2023-04-07T15:37:54;26.80;34.10
45843;DHT22;31563;51.744;8.252;2023-04-07T15:40:22;26.60;34.30
45843;DHT22;31563;51.744;8.252;2023-04-07T15:42:51;26.60;34.40
45843;DHT22;31563;51.744;8.252;2023-04-07T15:45:20;26.50;34.50
45843;DHT22;31563;51.744;8.252;2023-04-07T15:47:48;26.40;34.50
45843;DHT22;31563;51.744;8.252;2023-04-07T15:50:17;26.40;35.20